sensor_id;sensor_type;location;lat;lon;timestamp;temperature;humidity
52709;DHT22;38606;52.986;6.980;2022-11-13T06:34:30;4.80;99.90
52709;DHT22;38606;52.986;6.980;2022-11-13T06:36:56;6.30;99.90
52709;DHT22;38606;52.986;6.980;2022-11-13T06:39:22;5.10;99.90
52709;DHT22;38606;52.986;6.980;2022-11-13T06:41:48;4.60;99.90
52709;DHT22;38606;52.986;6.980;2022-11-13T06:44:17;6.50;99.90
52709;DHT22;38606;52.986;6.980;2022-11-13T06:47:06;5.50;99.90
52709;DHT22;38606;52.986;6.980;2022-11-13T06:52:40;5.00;99.90
52709;DHT22;38606;52.986;6.980;2022-11-13T06:55:21;5.10;99.90
52709;DHT22;38606;52.986;6.980;2022-11-13T06:58:08;5.00;99.90
52709;DHT22;38606;52.986;6.980;2022-11-13T07:00:43;4.90;99.90
52709;DHT22;38606;52.986;6.980;2022-11-13T07:03:17;5.00;99.90
52709;DHT22;38606;52.986;6.980;2022-11-13T07:05:44;4.10;99.90
52709;DHT22;38606;52.986;6.980;2022-11-13T07:08:14;5.20;99.90
52709;DHT22;38606;52.986;6.980;2022-11-13T07:10:50;6.90;99.90
52709;DHT22;38606;52.986;6.980;2022-11-13T07:13:33;5.20;99.90
52709;DHT22;38606;52.986;6.980;2022-11-13T07:16:13;4.80;99.90
52709;DHT22;38606;52.986;6.980;2022-11-13T07:18:56;3.40;99.90
52709;DHT22;38606;52.986;6.980;2022-11-13T07:24:55;4.70;99.90
52709;DHT22;38606;52.986;6.980;2022-11-13T07:27:37;5.30;99.90
52709;DHT22;38606;52.986;6.980;2022-11-13T07:30:07;5.10;99.90
52709;DHT22;38606;52.986;6.980;2022-11-13T07:32:36;5.50;99.90
52709;DHT22;38606;52.986;6.980;2022-11-13T07:35:31;7.00;99.90
52709;DHT22;38606;52.986;6.980;2022-11-13T07:41:12;5.20;99.90
52709;DHT22;38606;52.986;6.980;2022-11-13T07:44:26;7.00;99.90
52709;DHT22;38606;52.986;6.980;2022-11-13T07:47:20;4.30;99.90
52709;DHT22;38606;52.986;6.980;2022-11-13T07:49:56;5.00;99.90
52709;DHT22;38606;52.986;6.980;2022-11-13T07:52:24;7.00;99.90
52709;DHT22;38606;52.986;6.980;2022-11-13T07:54:59;3.10;99.90
52709;DHT22;38606;52.986;6.980;2022-11-13T07:57:25;5.00;99.90
52709;DHT22;38606;52.986;6.980;2022-11-13T07:59:51;4.00;99.90
52709;DHT22;38606;52.986;6.980;2022-11-13T08:02:23;5.00;99.90
52709;DHT22;38606;52.986;6.980;2022-11-13T08:04:54;4.90;99.90
52709;DHT22;38606;52.986;6.980;2022-11-13T08:07:48;6.00;99.90
52709;DHT22;38606;52.986;6.980;2022-11-13T08:10:49;7.10;99.90
52709;DHT22;38606;52.986;6.980;2022-11-13T08:13:42;5.10;99.90
52709;DHT22;38606;52.986;6.980;2022-11-13T08:16:15;5.00;99.90
52709;DHT22;38606;52.986;6.980;2022-11-13T08:22:26;4.60;99.90
52709;DHT22;38606;52.986;6.980;2022-11-13T08:24:54;5.00;99.90
52709;DHT22;38606;52.986;6.980;2022-11-13T08:27:21;6.20;99.90
52709;DHT22;38606;52.986;6.980;2022-11-13T08:29:59;5.20;99.90
52709;DHT22;38606;52.986;6.980;2022-11-13T08:32:47;6.70;99.90
52709;DHT22;38606;52.986;6.980;2022-11-13T08:35:21;6.40;99.90
52709;DHT22;38606;52.986;6.980;2022-11-13T08:38:17;5.40;99.90
52709;DHT22;38606;52.986;6.980;2022-11-13T08:44:16;6.60;99.90
52709;DHT22;38606;52.986;6.980;2022-11-13T08:47:14;6.80;99.90
52709;DHT22;38606;52.986;6.980;2022-11-13T08:49:46;5.20;99.90
52709;DHT22;38606;52.986;6.980;2022-11-13T08:52:21;4.40;99.90
52709;DHT22;38606;52.986;6.980;2022-11-13T08:54:59;5.80;99.90
52709;DHT22;38606;52.986;6.980;2022-11-13T08:57:42;5.90;99.90
52709;DHT22;38606;52.986;6.980;2022-11-13T09:00:14;8.10;99.90
52709;DHT22;38606;52.986;6.980;2022-11-13T09:02:58;6.30;99.90
52709;DHT22;38606;52.986;6.980;2022-11-13T09:05:32;8.10;99.90
52709;DHT22;38606;52.986;6.980;2022-11-13T09:08:06;6.80;99.90
52709;DHT22;38606;52.986;6.980;2022-11-13T09:10:38;4.70;99.90
52709;DHT22;38606;52.986;6.980;2022-11-13T09:13:20;9.00;99.90
52709;DHT22;38606;52.986;6.980;2022-11-13T09:16:10;5.90;99.90
52709;DHT22;38606;52.986;6.980;2022-11-13T09:18:50;6.30;99.90
52709;DHT22;38606;52.986;6.980;2022-11-13T09:21:19;6.40;99.90
52709;DHT22;38606;52.986;6.980;2022-11-13T09:33:36;8.90;99.90
52709;DHT22;38606;52.986;6.980;2022-11-13T09:36:25;6.00;99.90
52709;DHT22;38606;52.986;6.980;2022-11-13T09:38:51;7.90;99.90
52709;DHT22;38606;52.986;6.980;2022-11-13T09:41:48;7.70;99.90
52709;DHT22;38606;52.986;6.980;2022-11-13T09:44:50;9.00;99.90
52709;DHT22;38606;52.986;6.980;2022-11-13T09:50:40;8.70;99.90
52709;DHT22;38606;52.986;6.980;2022-11-13T09:53:36;8.60;99.90
52709;DHT22;38606;52.986;6.980;2022-11-13T09:56:27;8.30;99.90
52709;DHT22;38606;52.986;6.980;2022-11-13T09:59:17;7.90;99.90
52709;DHT22;38606;52.986;6.980;2022-11-13T10:16:36;8.40;99.90
52709;DHT22;38606;52.986;6.980;2022-11-13T10:21:51;7.90;99.90
52709;DHT22;38606;52.986;6.980;2022-11-13T10:24:26;8.40;99.90
52709;DHT22;38606;52.986;6.980;2022-11-13T10:26:54;6.80;99.90
52709;DHT22;38606;52.986;6.980;2022-11-13T10:29:42;9.50;99.90
52709;DHT22;38606;52.986;6.980;2022-11-13T10:51:52;11.30;99.90
52709;DHT22;38606;52.986;6.980;2022-11-13T12:00:26;10.90;99.90
52709;DHT22;38606;52.986;6.980;2022-11-13T12:06:03;10.90;99.90
52709;DHT22;38606;52.986;6.980;2022-11-13T12:11:35;11.30;99.90
52709;DHT22;38606;52.986;6.980;2022-11-13T12:14:16;11.40;99.90
52709;DHT22;38606;52.986;6.980;2022-11-13T12:17:17;11.60;99.90
52709;DHT22;38606;52.986;6.980;2022-11-13T12:22:25;11.20;99.90
52709;DHT22;38606;52.986;6.980;2022-11-13T12:27:42;11.30;99.90
52709;DHT22;38606;52.986;6.980;2022-11-13T12:30:14;11.50;99.90
52709;DHT22;38606;52.986;6.980;2022-11-13T12:35:24;11.60;99.90
52709;DHT22;38606;52.986;6.980;2022-11-13T12:41:14;11.50;99.90
52709;DHT22;38606;52.986;6.980;2022-11-13T12:46:39;11.70;99.90
52709;DHT22;38606;52.986;6.980;2022-11-13T12:49:26;11.60;99.90
52709;DHT22;38606;52.986;6.980;2022-11-13T12:51:58;11.70;99.90
52709;DHT22;38606;52.986;6.980;2022-11-13T12:54:35;12.00;99.90
52709;DHT22;38606;52.986;6.980;2022-11-13T12:57:20;11.90;99.90
52709;DHT22;38606;52.986;6.980;2022-11-13T12:59:57;11.80;99.90
52709;DHT22;38606;52.986;6.980;2022-11-13T13:03:41;11.70;99.90
52709;DHT22;38606;52.986;6.980;2022-11-13T13:11:43;12.10;99.90
52709;DHT22;38606;52.986;6.980;2022-11-13T13:16:50;11.90;99.90
52709;DHT22;38606;52.986;6.980;2022-11-13T13:19:28;12.10;99.90
52709;DHT22;38606;52.986;6.980;2022-11-13T13:21:54;11.90;99.90
52709;DHT22;38606;52.986;6.980;2022-11-13T13:24:32;12.40;99.90
52709;DHT22;38606;52.986;6.980;2022-11-13T13:26:59;11.80;99.90
52709;DHT22;38606;52.986;6.980;2022-11-13T13:29:26;11.70;99.90
52709;DHT22;38606;52.986;6.980;2022-11-13T13:32:17;11.80;99.90
52709;DHT22;38606;52.986;6.980;2022-11-13T13:35:14;10.40;99.90
52709;DHT22;38606;52.986;6.980;2022-11-13T13:46:12;11.90;99.90
52709;DHT22;38606;52.986;6.980;2022-11-13T13:48:40;11.80;99.90
52709;DHT22;38606;52.986;6.980;2022-11-13T13:51:36;12.80;99.90
52709;DHT22;38606;52.986;6.980;2022-11-13T13:54:06;12.10;99.90
52709;DHT22;38606;52.986;6.980;2022-11-13T13:56:33;11.90;99.90
52709;DHT22;38606;52.986;6.980;2022-11-13T13:59:04;11.90;99.90
52709;DHT22;38606;52.986;6.980;2022-11-13T14:01:32;12.00;99.90
52709;DHT22;38606;52.986;6.980;2022-11-13T14:04:19;12.00;99.90
52709;DHT22;38606;52.986;6.980;2022-11-13T14:06:53;12.00;99.90
52709;DHT22;38606;52.986;6.980;2022-11-13T14:09:22;12.00;99.90
52709;DHT22;38606;52.986;6.980;2022-11-13T14:11:56;11.90;99.90
52709;DHT22;38606;52.986;6.980;2022-11-13T14:14:23;12.10;99.90
52709;DHT22;38606;52.986;6.980;2022-11-13T14:16:51;12.00;99.90
52709;DHT22;38606;52.986;6.980;2022-11-13T14:19:17;11.80;99.90
52709;DHT22;38606;52.986;6.980;2022-11-13T14:21:45;12.10;99.90
52709;DHT22;38606;52.986;6.980;2022-11-13T14:24:20;11.70;99.90
52709;DHT22;38606;52.986;6.980;2022-11-13T14:26:48;11.70;99.90
52709;DHT22;38606;52.986;6.980;2022-11-13T14:29:38;11.90;99.90
52709;DHT22;38606;52.986;6.980;2022-11-13T14:32:09;11.80;99.90
52709;DHT22;38606;52.986;6.980;2022-11-13T14:34:44;11.80;99.90
52709;DHT22;38606;52.986;6.980;2022-11-13T14:37:33;11.80;99.90
52709;DHT22;38606;52.986;6.980;2022-11-13T14:40:02;12.00;99.90
52709;DHT22;38606;52.986;6.980;2022-11-13T14:42:32;11.50;99.90
52709;DHT22;38606;52.986;6.980;2022-11-13T14:47:37;11.80;99.90
52709;DHT22;38606;52.986;6.980;2022-11-13T14:50:30;11.50;99.90
52709;DHT22;38606;52.986;6.980;2022-11-13T14:53:06;13.30;99.90
52709;DHT22;38606;52.986;6.980;2022-11-13T14:55:37;11.60;99.90
52709;DHT22;38606;52.986;6.980;2022-11-13T14:58:03;11.30;99.90
52709;DHT22;38606;52.986;6.980;2022-11-13T15:00:35;11.50;99.90
52709;DHT22;38606;52.986;6.980;2022-11-13T15:03:03;12.20;99.90
52709;DHT22;38606;52.986;6.980;2022-11-13T15:05:29;12.30;99.90
52709;DHT22;38606;52.986;6.980;2022-11-13T15:07:55;11.30;99.90
52709;DHT22;38606;52.986;6.980;2022-11-13T15:10:24;11.20;99.90
52709;DHT22;38606;52.986;6.980;2022-11-13T15:12:51;11.20;99.90
52709;DHT22;38606;52.986;6.980;2022-11-13T15:15:26;11.20;99.90
52709;DHT22;38606;52.986;6.980;2022-11-13T15:17:53;11.00;99.90
52709;DHT22;38606;52.986;6.980;2022-11-13T15:20:25;10.90;99.90
52709;DHT22;38606;52.986;6.980;2022-11-13T15:22:51;10.80;99.90
52709;DHT22;38606;52.986;6.980;2022-11-13T15:25:19;10.80;99.90
52709;DHT22;38606;52.986;6.980;2022-11-13T15:27:45;10.90;99.90
52709;DHT22;38606;52.986;6.980;2022-11-13T15:30:12;10.70;99.90
52709;DHT22;38606;52.986;6.980;2022-11-13T15:32:37;10.60;99.90
52709;DHT22;38606;52.986;6.980;2022-11-13T15:35:05;10.60;99.90
52709;DHT22;38606;52.986;6.980;2022-11-13T15:37:31;10.40;99.90
52709;DHT22;38606;52.986;6.980;2022-11-13T15:39:57;10.60;99.90
52709;DHT22;38606;52.986;6.980;2022-11-13T15:42:30;10.40;99.90
52709;DHT22;38606;52.986;6.980;2022-11-13T15:44:57;11.40;99.90
52709;DHT22;38606;52.986;6.980;2022-11-13T15:47:36;10.30;99.90
52709;DHT22;38606;52.986;6.980;2022-11-13T15:50:03;10.30;99.90
52709;DHT22;38606;52.986;6.980;2022-11-13T15:52:36;10.10;99.90
52709;DHT22;38606;52.986;6.980;2022-11-13T15:55:18;10.20;99.90
52709;DHT22;38606;52.986;6.980;2022-11-13T15:57:44;10.20;99.90
52709;DHT22;38606;52.986;6.980;2022-11-13T16:00:18;9.90;99.90
52709;DHT22;38606;52.986;6.980;2022-11-13T16:02:46;10.20;99.90
52709;DHT22;38606;52.986;6.980;2022-11-13T16:05:15;10.00;99.90
52709;DHT22;38606;52.986;6.980;2022-11-13T16:07:41;10.80;99.90
52709;DHT22;38606;52.986;6.980;2022-11-13T16:10:08;10.60;99.90
52709;DHT22;38606;52.986;6.980;2022-11-13T16:12:35;9.60;99.90
52709;DHT22;38606;52.986;6.980;2022-11-13T16:15:01;9.60;99.90
52709;DHT22;38606;52.986;6.980;2022-11-13T16:17:27;9.60;99.90
52709;DHT22;38606;52.986;6.980;2022-11-13T16:19:53;11.00;99.90
52709;DHT22;38606;52.986;6.980;2022-11-13T16:22:25;9.60;99.90
52709;DHT22;38606;52.986;6.980;2022-11-13T16:24:51;9.40;99.90
52709;DHT22;38606;52.986;6.980;2022-11-13T16:27:28;9.60;99.90
52709;DHT22;38606;52.986;6.980;2022-11-13T16:29:54;9.30;99.90
52709;DHT22;38606;52.986;6.980;2022-11-13T16:32:20;10.20;99.90
52709;DHT22;38606;52.986;6.980;2022-11-13T16:34:55;9.10;99.90
52709;DHT22;38606;52.986;6.980;2022-11-13T16:38:10;9.20;99.90
52709;DHT22;38606;52.986;6.980;2022-11-13T16:40:36;9.10;99.90
52709;DHT22;38606;52.986;6.980;2022-11-13T16:43:02;9.10;99.90
52709;DHT22;38606;52.986;6.980;2022-11-13T16:45:27;8.90;99.90
52709;DHT22;38606;52.986;6.980;2022-11-13T16:52:16;8.90;99.90
52709;DHT22;38606;52.986;6.980;2022-11-13T16:54:42;8.70;99.90
52709;DHT22;38606;52.986;6.980;2022-11-13T16:57:12;8.70;99.90
52709;DHT22;38606;52.986;6.980;2022-11-13T16:59:38;10.00;99.90
52709;DHT22;38606;52.986;6.980;2022-11-13T17:02:12;8.90;99.90
52709;DHT22;38606;52.986;6.980;2022-11-13T17:04:39;10.00;99.90
52709;DHT22;38606;52.986;6.980;2022-11-13T17:07:04;8.70;99.90
52709;DHT22;38606;52.986;6.980;2022-11-13T17:09:30;8.70;99.90
52709;DHT22;38606;52.986;6.980;2022-11-13T17:11:56;8.50;99.90
52709;DHT22;38606;52.986;6.980;2022-11-13T17:14:22;8.40;99.90
52709;DHT22;38606;52.986;6.980;2022-11-13T17:16:47;8.30;99.90
52709;DHT22;38606;52.986;6.980;2022-11-13T17:19:13;8.50;99.90
52709;DHT22;38606;52.986;6.980;2022-11-13T17:21:39;8.50;99.90
52709;DHT22;38606;52.986;6.980;2022-11-13T17:24:05;8.30;99.90
52709;DHT22;38606;52.986;6.980;2022-11-13T17:26:30;8.30;99.90
52709;DHT22;38606;52.986;6.980;2022-11-13T17:28:57;8.40;99.90
52709;DHT22;38606;52.986;6.980;2022-11-13T17:31:26;8.40;99.90
52709;DHT22;38606;52.986;6.980;2022-11-13T17:33:53;9.00;99.90
52709;DHT22;38606;52.986;6.980;2022-11-13T17:36:19;8.90;99.90
52709;DHT22;38606;52.986;6.980;2022-11-13T17:38:45;8.10;99.90
52709;DHT22;38606;52.986;6.980;2022-11-13T17:41:12;8.70;99.90
52709;DHT22;38606;52.986;6.980;2022-11-13T17:43:39;8.20;99.90
52709;DHT22;38606;52.986;6.980;2022-11-13T17:46:11;8.20;99.90
52709;DHT22;38606;52.986;6.980;2022-11-13T17:48:37;9.30;99.90
52709;DHT22;38606;52.986;6.980;2022-11-13T17:51:06;8.10;99.90
52709;DHT22;38606;52.986;6.980;2022-11-13T17:53:32;9.30;99.90
52709;DHT22;38606;52.986;6.980;2022-11-13T17:56:00;8.00;99.90
52709;DHT22;38606;52.986;6.980;2022-11-13T17:58:27;7.90;99.90
52709;DHT22;38606;52.986;6.980;2022-11-13T18:00:56;7.80;99.90
52709;DHT22;38606;52.986;6.980;2022-11-13T18:03:27;8.00;99.90
52709;DHT22;38606;52.986;6.980;2022-11-13T18:05:53;8.50;99.90
52709;DHT22;38606;52.986;6.980;2022-11-13T18:08:19;8.00;99.90
52709;DHT22;38606;52.986;6.980;2022-11-13T18:10:44;8.20;99.90
52709;DHT22;38606;52.986;6.980;2022-11-13T18:13:10;8.00;99.90
52709;DHT22;38606;52.986;6.980;2022-11-13T18:15:37;7.90;99.90
52709;DHT22;38606;52.986;6.980;2022-11-13T18:18:05;7.80;99.90
52709;DHT22;38606;52.986;6.980;2022-11-13T18:20:32;7.90;99.90
52709;DHT22;38606;52.986;6.980;2022-11-13T18:22:57;7.50;99.90
52709;DHT22;38606;52.986;6.980;2022-11-13T18:25:23;7.70;99.90
52709;DHT22;38606;52.986;6.980;2022-11-13T18:27:49;7.60;99.90
52709;DHT22;38606;52.986;6.980;2022-11-13T18:30:15;8.60;99.90
52709;DHT22;38606;52.986;6.980;2022-11-13T18:32:41;7.50;99.90
52709;DHT22;38606;52.986;6.980;2022-11-13T18:35:07;8.00;99.90
52709;DHT22;38606;52.986;6.980;2022-11-13T18:37:33;7.50;99.90
52709;DHT22;38606;52.986;6.980;2022-11-13T18:39:58;7.50;99.90
52709;DHT22;38606;52.986;6.980;2022-11-13T18:42:26;7.70;99.90
52709;DHT22;38606;52.986;6.980;2022-11-13T18:44:52;7.30;99.90
52709;DHT22;38606;52.986;6.980;2022-11-13T18:47:17;7.90;99.90
52709;DHT22;38606;52.986;6.980;2022-11-13T18:49:43;8.00;99.90
52709;DHT22;38606;52.986;6.980;2022-11-13T18:52:09;7.40;99.90
52709;DHT22;38606;52.986;6.980;2022-11-13T18:54:35;7.10;99.90
52709;DHT22;38606;52.986;6.980;2022-11-13T18:57:01;7.00;99.90
52709;DHT22;38606;52.986;6.980;2022-11-13T18:59:27;7.20;99.90
52709;DHT22;38606;52.986;6.980;2022-11-13T19:01:52;7.10;99.90
52709;DHT22;38606;52.986;6.980;2022-11-13T19:04:19;6.90;99.90
52709;DHT22;38606;52.986;6.980;2022-11-13T19:06:44;7.10;99.90
52709;DHT22;38606;52.986;6.980;2022-11-13T19:09:12;6.90;99.90
52709;DHT22;38606;52.986;6.980;2022-11-13T19:11:38;7.00;99.90
52709;DHT22;38606;52.986;6.980;2022-11-13T19:14:05;6.90;99.90
52709;DHT22;38606;52.986;6.980;2022-11-13T19:16:33;6.80;99.90
52709;DHT22;38606;52.986;6.980;2022-11-13T19:19:03;7.60;99.90
52709;DHT22;38606;52.986;6.980;2022-11-13T19:21:30;6.70;99.90
52709;DHT22;38606;52.986;6.980;2022-11-13T19:23:56;6.70;99.90
52709;DHT22;38606;52.986;6.980;2022-11-13T19:26:23;6.50;99.90
52709;DHT22;38606;52.986;6.980;2022-11-13T19:28:50;6.40;99.90
52709;DHT22;38606;52.986;6.980;2022-11-13T19:31:18;6.60;99.90
52709;DHT22;38606;52.986;6.980;2022-11-13T19:33:45;6.80;99.90
52709;DHT22;38606;52.986;6.980;2022-11-13T19:36:16;6.50;99.90
52709;DHT22;38606;52.986;6.980;2022-11-13T19:38:42;7.10;99.90
52709;DHT22;38606;52.986;6.980;2022-11-13T19:41:10;7.50;99.90
52709;DHT22;38606;52.986;6.980;2022-11-13T19:43:38;6.40;99.90
52709;DHT22;38606;52.986;6.980;2022-11-13T19:46:05;6.50;99.90
52709;DHT22;38606;52.986;6.980;2022-11-13T19:48:32;6.40;99.90
52709;DHT22;38606;52.986;6.980;2022-11-13T19:51:12;6.30;99.90
52709;DHT22;38606;52.986;6.980;2022-11-13T19:53:38;6.30;99.90
52709;DHT22;38606;52.986;6.980;2022-11-13T19:56:11;6.30;99.90
52709;DHT22;38606;52.986;6.980;2022-11-13T19:58:38;7.00;99.90
52709;DHT22;38606;52.986;6.980;2022-11-13T20:01:12;6.40;99.90
52709;DHT22;38606;52.986;6.980;2022-11-13T20:03:38;6.30;99.90
52709;DHT22;38606;52.986;6.980;2022-11-13T20:06:04;7.60;99.90
52709;DHT22;38606;52.986;6.980;2022-11-13T20:08:32;6.40;99.90
52709;DHT22;38606;52.986;6.980;2022-11-13T20:11:06;7.40;99.90
52709;DHT22;38606;52.986;6.980;2022-11-13T20:13:35;6.30;99.90
52709;DHT22;38606;52.986;6.980;2022-11-13T20:16:04;6.30;99.90
52709;DHT22;38606;52.986;6.980;2022-11-13T20:18:30;6.40;99.90
52709;DHT22;38606;52.986;6.980;2022-11-13T20:20:56;6.20;99.90
52709;DHT22;38606;52.986;6.980;2022-11-13T20:23:22;7.50;99.90
52709;DHT22;38606;52.986;6.980;2022-11-13T20:25:59;6.30;99.90
52709;DHT22;38606;52.986;6.980;2022-11-13T20:28:26;6.10;99.90
52709;DHT22;38606;52.986;6.980;2022-11-13T20:31:11;7.30;99.90
52709;DHT22;38606;52.986;6.980;2022-11-13T20:33:37;7.60;99.90
52709;DHT22;38606;52.986;6.980;2022-11-13T20:36:06;6.50;99.90
52709;DHT22;38606;52.986;6.980;2022-11-13T20:38:32;6.10;99.90
52709;DHT22;38606;52.986;6.980;2022-11-13T20:40:57;7.20;99.90
52709;DHT22;38606;52.986;6.980;2022-11-13T20:43:24;6.50;99.90
52709;DHT22;38606;52.986;6.980;2022-11-13T20:45:50;6.20;99.90
52709;DHT22;38606;52.986;6.980;2022-11-13T20:48:15;6.20;99.90
52709;DHT22;38606;52.986;6.980;2022-11-13T20:50:41;6.10;99.90
52709;DHT22;38606;52.986;6.980;2022-11-13T20:53:07;6.20;99.90
52709;DHT22;38606;52.986;6.980;2022-11-13T20:55:32;6.50;99.90
52709;DHT22;38606;52.986;6.980;2022-11-13T20:57:58;6.00;99.90
52709;DHT22;38606;52.986;6.980;2022-11-13T21:00:24;6.30;99.90
52709;DHT22;38606;52.986;6.980;2022-11-13T21:02:50;6.30;99.90
52709;DHT22;38606;52.986;6.980;2022-11-13T21:05:16;6.10;99.90
52709;DHT22;38606;52.986;6.980;2022-11-13T21:07:42;6.20;99.90
52709;DHT22;38606;52.986;6.980;2022-11-13T21:10:08;7.30;99.90
52709;DHT22;38606;52.986;6.980;2022-11-13T21:12:34;6.20;99.90
52709;DHT22;38606;52.986;6.980;2022-11-13T21:15:00;7.50;99.90
52709;DHT22;38606;52.986;6.980;2022-11-13T21:17:25;6.40;99.90
52709;DHT22;38606;52.986;6.980;2022-11-13T21:19:51;6.20;99.90
52709;DHT22;38606;52.986;6.980;2022-11-13T21:22:17;6.40;99.90
52709;DHT22;38606;52.986;6.980;2022-11-13T21:24:42;6.30;99.90
52709;DHT22;38606;52.986;6.980;2022-11-13T21:27:08;6.30;99.90
52709;DHT22;38606;52.986;6.980;2022-11-13T21:29:34;6.30;99.90
52709;DHT22;38606;52.986;6.980;2022-11-13T21:31:59;6.40;99.90
52709;DHT22;38606;52.986;6.980;2022-11-13T21:34:25;7.50;99.90
52709;DHT22;38606;52.986;6.980;2022-11-13T21:36:51;6.40;99.90
52709;DHT22;38606;52.986;6.980;2022-11-13T21:39:16;6.40;99.90
52709;DHT22;38606;52.986;6.980;2022-11-13T21:41:42;6.40;99.90
52709;DHT22;38606;52.986;6.980;2022-11-13T21:44:09;6.40;99.90
52709;DHT22;38606;52.986;6.980;2022-11-13T21:46:37;6.60;99.90
52709;DHT22;38606;52.986;6.980;2022-11-13T21:49:11;6.50;99.90
52709;DHT22;38606;52.986;6.980;2022-11-13T21:51:39;7.30;99.90
52709;DHT22;38606;52.986;6.980;2022-11-13T21:54:06;6.90;99.90
52709;DHT22;38606;52.986;6.980;2022-11-13T21:56:33;6.70;99.90
52709;DHT22;38606;52.986;6.980;2022-11-13T21:58:59;6.70;99.90
52709;DHT22;38606;52.986;6.980;2022-11-13T22:01:25;6.60;99.90
52709;DHT22;38606;52.986;6.980;2022-11-13T22:03:51;7.90;99.90
52709;DHT22;38606;52.986;6.980;2022-11-13T22:06:27;7.20;99.90
52709;DHT22;38606;52.986;6.980;2022-11-13T22:09:11;6.70;99.90
52709;DHT22;38606;52.986;6.980;2022-11-13T22:11:37;6.60;99.90
52709;DHT22;38606;52.986;6.980;2022-11-13T22:14:03;6.80;99.90
52709;DHT22;38606;52.986;6.980;2022-11-13T22:16:31;6.90;99.90
52709;DHT22;38606;52.986;6.980;2022-11-13T22:18:59;8.20;99.90
52709;DHT22;38606;52.986;6.980;2022-11-13T22:21:27;7.20;99.90
52709;DHT22;38606;52.986;6.980;2022-11-13T22:23:53;6.80;99.90
52709;DHT22;38606;52.986;6.980;2022-11-13T22:26:21;7.80;99.90
52709;DHT22;38606;52.986;6.980;2022-11-13T22:28:47;6.70;99.90
52709;DHT22;38606;52.986;6.980;2022-11-13T22:31:22;6.70;99.90
52709;DHT22;38606;52.986;6.980;2022-11-13T22:33:49;7.50;99.90
52709;DHT22;38606;52.986;6.980;2022-11-13T22:36:17;6.90;99.90
52709;DHT22;38606;52.986;6.980;2022-11-13T22:38:44;6.70;99.90
52709;DHT22;38606;52.986;6.980;2022-11-13T22:43:37;7.10;99.90
52709;DHT22;38606;52.986;6.980;2022-11-13T22:46:08;7.40;99.90
52709;DHT22;38606;52.986;6.980;2022-11-13T22:48:36;7.40;99.90
52709;DHT22;38606;52.986;6.980;2022-11-13T22:51:04;8.30;99.90
52709;DHT22;38606;52.986;6.980;2022-11-13T22:53:30;6.90;99.90
52709;DHT22;38606;52.986;6.980;2022-11-13T22:56:01;7.30;99.90
52709;DHT22;38606;52.986;6.980;2022-11-13T22:58:27;8.10;99.90
52709;DHT22;38606;52.986;6.980;2022-11-13T23:00:52;7.00;99.90
52709;DHT22;38606;52.986;6.980;2022-11-13T23:03:18;7.10;99.90
52709;DHT22;38606;52.986;6.980;2022-11-13T23:05:44;7.50;99.90
52709;DHT22;38606;52.986;6.980;2022-11-13T23:08:09;7.90;99.90
52709;DHT22;38606;52.986;6.980;2022-11-13T23:10:35;7.10;99.90
52709;DHT22;38606;52.986;6.980;2022-11-13T23:13:01;7.20;99.90
52709;DHT22;38606;52.986;6.980;2022-11-13T23:15:26;7.10;99.90
52709;DHT22;38606;52.986;6.980;2022-11-13T23:17:52;7.80;99.90
52709;DHT22;38606;52.986;6.980;2022-11-13T23:20:18;7.00;99.90
52709;DHT22;38606;52.986;6.980;2022-11-13T23:22:43;7.90;99.90
52709;DHT22;38606;52.986;6.980;2022-11-13T23:25:09;7.10;99.90
52709;DHT22;38606;52.986;6.980;2022-11-13T23:27:35;7.40;99.90
52709;DHT22;38606;52.986;6.980;2022-11-13T23:30:00;7.90;99.90
52709;DHT22;38606;52.986;6.980;2022-11-13T23:32:26;7.60;99.90
52709;DHT22;38606;52.986;6.980;2022-11-13T23:34:52;8.40;99.90
52709;DHT22;38606;52.986;6.980;2022-11-13T23:37:17;7.30;99.90
52709;DHT22;38606;52.986;6.980;2022-11-13T23:39:43;8.50;99.90
52709;DHT22;38606;52.986;6.980;2022-11-13T23:42:09;7.10;99.90
52709;DHT22;38606;52.986;6.980;2022-11-13T23:44:35;8.50;99.90
52709;DHT22;38606;52.986;6.980;2022-11-13T23:47:00;7.50;99.90
52709;DHT22;38606;52.986;6.980;2022-11-13T23:49:26;7.20;99.90
52709;DHT22;38606;52.986;6.980;2022-11-13T23:51:52;7.40;99.90
52709;DHT22;38606;52.986;6.980;2022-11-13T23:54:17;8.10;99.90
52709;DHT22;38606;52.986;6.980;2022-11-13T23:56:43;8.00;99.90
52709;DHT22;38606;52.986;6.980;2022-11-13T23:59:09;7.30;99.90
